View Sortable Currents For Network
ASOSAWOSCoCoRaHSCOOPDCPISUSM
SchoolNetOtherSCANMy FavoritesBy StateRWIS
RWIS SurfaceRWIS TrafficRWIS SoilBy NWS WFO

Current AWOS Conditions

** This page will automatically refresh every five minutes.
Sorted by: (Relative Humidity)     Click on a column to sort it.

Add ID: Name: Ob Time   Wind [knots]   Rainfall
Temp (Hi / Lo) DewP Feels RH% Dir Speed Peak Gust
@ Time
Alti Vsby Hour Today
EOKKEOKUK MUNI07:15 PM 36(39/34) 32 18 @ 08:00 AM 30.26 10 0 0.12
AXAALGONA07:05 PM 18(32/16) 0 300 721 @ 06:05 AM 30.27 7 0 0.05
AWGWASHINGTON07:15 PM 32(39/32) 32 20 721 @ 06:10 AM 30.29 10 0
MPZMOUNT PLEASANT07:15 PM 32(39/32) 30 10 519 @ 06:55 AM 30.27 10 0 0.0001
MUTMUSCATINE07:15 PM 32(41/32) 27 340 420 @ 06:30 AM 30.29 10 0 0.07
TVKCenterville07:00 PM 32(39/32) 32 0 019 @ 06:10 AM 30.27 10 0 0.04
FSWFORT MADISON07:15 PM 36(39/34) 30 32 79 20 419 @ 07:15 AM 30.28 10 0
MXOMONTICELLO MUNI07:15 PM 30(36/30) 25 22 81 320 721 @ 08:00 AM 30.26 10 0 0.06
VTIVINTON07:35 PM 31(36/31) 26 24 82 320 620 @ 08:20 AM 30.28 10 0
IIBINDEPENDENCE07:15 PM 27(33/27) 24 17 88 330 920 @ 06:15 AM 30.28 10 0 0.15
RDKRED OAK07:15 PM 28(34/23) 25 17 88 40 1113 @ 05:55 PM 30.27 10 0 0.02
FODFORT DODGE06:56 PM 21(32/19) 18 12 88 330 617 @ 03:56 AM 30.3 10 0 0.0001
OXVKnoxville07:15 PM 28(37/28) 25 19 88 360 820 @ 05:10 AM 30.26 10 0 0.02
SDASHENANDOAH MUNI07:15 PM 30(36/25) 27 20 88 30 1014 @ 03:30 PM 30.27 8 0 0.03
OOAOskaloosa07:15 PM 30(38/30) 27 23 88 10 617 @ 06:15 AM 30.28 10 0 0.06
PEAPELLA07:15 PM 28(38/28) 25 20 88 350 719 @ 01:30 PM 30.29 7 0 0.02
GGIGrinnell07:20 PM 28(35/28) 25 19 88 350 819 @ 05:50 AM 30.28 10 0 0.04
IFAIowa Falls07:15 PM 25(33/25) 22 14 88 310 1022 @ 05:15 AM 30.3 10 0 0.08
CWICLINTON06:56 PM 31(39/31) 28 23 89 310 819 @ 09:40 AM 30.28 10 0 0.08
FFLFAIRFIELD07:15 PM 30(39/30) 28 23 92 20 618 @ 06:35 AM 30.27 10 0 0.09
I75Osceola07:15 PM 29(38/29) 27 22 92 350 615 @ 07:05 AM 30.27 10 0 0.0001
FXYForest City07:15 PM 16(32/16) 14 92 0 011 @ 04:35 AM 30.28 7 0 0.06
EBSWebster City07:15 PM 21(32/21) 19 9 92 340 1023 @ 04:45 AM 30.27 10 0
ADUAUDUBON07:15 PM 21(32/21) 19 13 92 360 510 @ 06:50 PM 30.27 10 0 0.02
CNCCHARITON07:15 PM 30(37/30) 28 23 92 30 618 @ 04:55 AM 30.27 10 0 0.04
IKVANKENY07:15 PM 25(34/25) 23 17 92 10 6G1221 @ 06:10 AM 30.29 9 0 0.03
BNWBOONE MUNI07:15 PM 23(32/23) 21 92 20 @ 01:55 PM 30.26 7 0 0.07
CINCARROLL07:15 PM 21(32/19) 19 8 92 350 1317 @ 03:50 AM 30.27 9 0 0.04
TNUNEWTON MUNI07:15 PM 27(34/27) 25 17 92 360 918 @ 06:10 AM 30.27 10 0 0.06
DEHDECORAH07:15 PM 25(32/25) 23 18 92 521 @ 06:45 AM 30.27 10 0 0.16
CSQCRESTON07:15 PM 28(36/25) 27 19 96 30 820 @ 04:00 AM 30.26 10 0 0.13
PROPerry07:05 PM 24(33/24) 23 12 96 340 1219 @ 04:35 AM 30.29 10 0 0.04
CKPCherokee07:15 PM 22(27/14) 21 13 96 340 715 @ 08:05 AM 30.29 10 0
CBFCOUNCIL BLUFFS07:15 PM 23(30/23) 23 13 100 30 815 @ 05:30 PM 30.26 5 0 0.0001
AIOATLANTIC07:15 PM 25(32/25) 25 16 100 30 716 @ 04:10 AM 30.28 10 0 0.0001
DNSDENISON07:15 PM 19(30/19) 19 6 100 10 1115 @ 06:55 PM 30.28 10 0 0.03
CCYCHARLES CITY07:15 PM 23(34/23) 23 16 100 300 526 @ 05:30 AM 30.29 10 0 0.2
CAVCLARION07:15 PM 21(32/21) 21 12 100 310 624 @ 04:35 AM 30.29 10 0 0.11
HNRHARLAN07:15 PM 21(32/19) 21 9 100 30 1116 @ 06:40 PM 30.31 10 0 0.0001
ICLCLARINDA07:15 PM 30(36/27) 30 21 100 30 915 @ 06:10 AM 30.29 10 0 0.21
LRJLE MARS07:15 PM 19(27/14) 19 10 100 360 618 @ 07:20 AM 30.3 10 0
SHLSHELDON07:15 PM 19(27/18) 19 7 100 320 920 @ 07:50 AM 30.27 7 0 0.02
ORCOrange City07:15 PM 19(27/16) 19 11 100 350 518 @ 07:20 AM 30.28 4 0
OLZOELWEIN07:15 PM 27(34/27) 27 17 100 310 923 @ 07:00 AM 30.27 10 0 0.14
SLBStorm Lake07:15 PM 21(28/14) 21 9 100 350 1017 @ 08:00 AM 30.27 10 0